Terminal Aerodrome Forecast
Issued by NWS Wichita, KS

Home | Current Version | Previous Version | Graphics & Text | Print | Product List | Glossary On
Versions: 1 2 3 4 5 6 7 8 9 10 11 12 13 14 15 16 17 18 19 20
000
FTUS43 KICT 081200 AAA
TAFICT
TAF AMD
KICT 081228Z 0812/0912 02011KT P6SM VCTS BKN090CB
     FM081700 01012KT P6SM SCT100 BKN200
     FM090100 VRB03KT P6SM SKC=

USA.gov is the U.S. government's official web portal to all federal, state and local government web resources and services.